Latest Coastal Weather Observations for Wilsons Promontory

IDV60701

Issued at 10:42 am EST Sunday 14 April 2024 (issued every 10 minutes, with the page automatically refreshed every 10 minutes)

About coastal observations | Map of coastal stations | Coastal observations for VIC | Marine services | Other Formats
Station Details ID: 085096 Name: WILSONS PROMONTORY LIGHTHOUSE Lat: -39.13 Lon: 146.42 Height: 95.0 m
Data from the previous 72 hours. | See also: Recent months at Wilsons Promontory
Date/Time
EST
Wind Sea
Height
m
Swell Vis
km
Cloud Weather Temp
°C
Press
MSL
hPa
Rain since
9am
mm
Dir  Spd
kts
Gust
kts
Height
m
Period
s
Dir
14/10:30am W 14 23 - - - - - - - 16.1 1022.1 0.0
14/10:00am WNW 14 23 - - - - - - - 15.9 1022.2 0.0
14/09:54am W 15 25 - - - - - - - 15.8 - 0.0
14/09:53am W 15 25 - - - - - - - 15.8 1022.1 0.0
14/09:30am W 13 17 - - - - - - - 15.4 1022.2 0.0
14/09:00am W 11 18 - - - - - - - 14.9 1022.2 1.0
14/08:30am WNW 11 16 - - - - - - - 15.0 1022.2 1.0
14/08:00am WNW 15 20 - - - - - - - 14.6 1022.0 1.0
14/07:30am WNW 11 16 - - - - - - - 14.7 1021.9 1.0
14/07:00am WNW 13 21 - - - - - - - 14.4 1021.6 1.0
14/06:30am W 9 14 - - - - - - - 14.3 1021.5 1.0
14/06:00am W 8 14 - - - - - - Recent precip. 14.2 1021.6 1.0
14/05:30am WNW 8 12 - - - - - - - 14.5 1021.4 1.0
14/05:00am WNW 11 15 - - - - - - - 14.4 1021.3 0.6
14/04:30am WNW 11 15 - - - - - - - 14.2 1021.4 0.6
14/04:00am W 12 19 - - - - - - - 14.1 1021.2 0.6
14/03:30am W 10 15 - - - - - - - 14.0 1021.3 0.6
14/03:00am W 11 18 - - - - - - Rain 13.7 1021.5 0.6
14/02:30am WNW 13 18 - - - - - - - 14.0 1021.7 0.4
14/02:00am WNW 10 14 - - - - - - - 14.2 1022.1 0.4
14/01:30am WNW 11 15 - - - - - - - 14.4 1022.2 0.2
14/01:00am W 11 16 - - - - - - - 14.4 1022.2 0.0
14/12:30am WNW 9 13 - - - - - - - 14.7 1022.1 0.0
14/12:00am W 11 17 - - - - - - - 14.8 1022.1 0.0
 
Date/Time
EST
Wind Sea
Height
m
Swell Vis
km
Cloud Weather Temp
°C
Press
MSL
hPa
Rain since
9am
mm
Dir  Spd
kts
Gust
kts
Height
m
Period
s
Dir
13/11:30pm W 11 14 - - - - - - - 14.9 1022.1 0.0
13/11:00pm W 11 18 - - - - - - - 14.7 1022.2 0.0
13/10:30pm WNW 13 19 - - - - - - - 14.7 1022.4 0.0
13/10:00pm W 13 19 - - - - - - - 15.1 1022.5 0.0
13/09:30pm W 10 19 - - - - - - - 15.1 1022.5 0.0
13/09:00pm W 10 15 - - - - - - - 15.2 1022.4 0.0
13/08:30pm W 11 17 - - - - - - - 15.3 1022.3 0.0
13/08:00pm W 12 17 - - - - - - - 15.4 1022.1 0.0
13/07:30pm W 11 19 - - - - - - - 15.1 1022.2 0.0
13/07:00pm W 10 15 - - - - - - - 15.2 1022.2 0.0
13/06:30pm W 12 20 - - - - - - - 15.2 1021.9 0.0
13/06:00pm W 12 19 - - - - - - - 15.3 1021.4 0.0
13/05:30pm W 12 19 - - - - - - - 15.4 1021.3 0.0
13/05:00pm W 15 20 - - - - - - - 15.7 1020.8 0.0
13/04:30pm W 16 21 - - - - - - - 15.9 1020.7 0.0
13/04:00pm W 12 19 - - - - - - - 16.3 1020.8 0.0
13/03:30pm W 18 22 - - - - - - - 16.4 1020.7 0.0
13/03:00pm W 15 20 - - - - - - - 16.6 1021.0 0.0
13/02:30pm W 14 22 - - - - - - - 16.5 1020.9 0.0
13/02:00pm W 17 22 - - - - - - - 16.5 1020.9 0.0
13/01:30pm W 14 20 - - - - - - - 16.5 1021.2 0.0
13/01:00pm W 14 21 - - - - - - - 16.3 1021.3 0.0
13/12:30pm W 17 23 - - - - - - - 16.8 1021.6 0.0
13/12:00pm W 15 22 - - - - - - - 17.1 1021.8 0.0
13/11:30am W 15 21 - - - - - - - 16.3 1022.0 0.0
13/11:00am W 14 21 - - - - - - - 17.0 1022.0 0.0
13/10:30am W 13 19 - - - - - - - 17.2 1021.9 0.0
13/10:00am W 16 19 - - - - - - - 16.4 1021.8 0.0
13/09:30am W 14 18 - - - - - - - 16.0 1021.8 0.0
13/09:00am W 13 19 - - - - - - - 16.0 1021.6 1.2
13/08:30am WNW 14 18 - - - - - - - 14.7 1021.5 1.2
13/08:00am W 12 19 - - - - - - - 14.9 1021.2 1.2
13/07:30am W 10 15 - - - - - - - 14.9 1021.1 1.2
13/07:00am W 11 14 - - - - - - - 14.2 1020.7 1.2
13/06:30am W 11 16 - - - - - - - 14.2 1020.5 1.2
13/06:00am W 11 17 - - - - - - - 14.5 1020.2 1.2
13/05:30am W 13 19 - - - - - - - 14.4 1020.0 1.2
13/05:00am WSW 12 18 - - - - - - - 14.5 1019.9 1.2
13/04:30am W 12 17 - - - - - - - 14.1 1019.8 1.2
13/04:00am W 14 19 - - - - - - - 13.9 1019.6 1.2
13/03:30am W 11 16 - - - - - - - 13.7 1019.7 1.2
13/03:00am W 11 15 - - - - - - Recent precip. 13.6 1019.9 1.2
13/02:30am W 14 22 - - - - - - - 13.9 1019.9 1.0
13/02:00am W 10 16 - - - - - - - 14.3 1020.2 0.8
13/01:30am W 9 20 - - - - - - - 14.2 1020.3 0.8
13/01:00am W 11 16 - - - - - - - 14.7 1020.1 0.8
13/12:30am W 12 19 - - - - - - - 14.6 1020.1 0.8
13/12:00am W 11 18 - - - - - - - 14.6 1020.0 0.8
 
Date/Time
EST
Wind Sea
Height
m
Swell Vis
km
Cloud Weather Temp
°C
Press
MSL
hPa
Rain since
9am
mm
Dir  Spd
kts
Gust
kts
Height
m
Period
s
Dir
12/11:30pm W 13 18 - - - - - - - 14.7 1020.1 0.8
12/11:00pm W 13 18 - - - - - - - 14.6 1020.1 0.8
12/10:30pm W 12 18 - - - - - - - 14.8 1020.2 0.8
12/10:00pm W 11 17 - - - - - - - 14.6 1020.3 0.8
12/09:30pm W 10 16 - - - - - - - 14.5 1020.3 0.8
12/09:00pm W 11 17 - - - - - - - 14.5 1020.2 0.8
12/08:30pm W 15 20 - - - - - - - 14.6 1020.0 0.8
12/08:00pm W 15 24 - - - - - - - 14.5 1019.9 0.8
12/07:30pm W 11 18 - - - - - - - 14.6 1020.0 0.8
12/07:00pm W 14 20 - - - - - - - 14.6 1019.9 0.8
12/06:30pm W 16 21 - - - - - - - 14.4 1019.7 0.8
12/06:00pm W 13 22 - - - - - - - 14.5 1019.5 0.8
12/05:30pm W 12 18 - - - - - - - 14.8 1019.4 0.8
12/05:00pm W 13 18 - - - - - - - 15.0 1019.1 0.8
12/04:30pm W 13 19 - - - - - - - 15.4 1019.1 0.8
12/04:00pm W 16 21 - - - - - - - 15.6 1019.0 0.8
12/03:30pm W 17 20 - - - - - - - 16.3 1019.2 0.8
12/03:00pm WSW 15 21 - - - - - - - 15.9 1019.4 0.8
12/02:47pm WSW 17 22 - - - - - - - 15.6 1019.4 0.8
12/02:30pm W 16 20 - - - - - - - 17.0 1019.6 0.8
12/02:00pm W 13 19 - - - - - - - 16.3 1019.7 0.8
12/01:30pm W 14 20 - - - - - - - 16.8 1020.0 0.8
12/01:00pm W 13 19 - - - - - - - 16.7 1020.2 0.8
12/12:30pm WSW 15 20 - - - - - - - 16.1 1020.6 0.8
12/12:00pm W 15 19 - - - - - - - 16.0 1020.8 0.8
12/11:30am W 14 20 - - - - - - - 15.5 1021.0 0.8
12/11:00am W 13 17 - - - - - - - 16.1 1021.1 0.8
12/10:30am W 13 18 - - - - - - - 15.1 1021.3 0.8
12/10:00am W 11 16 - - - - - - - 14.2 1021.5 0.8
12/09:30am WSW 13 18 - - - - - - - 13.8 1021.5 0.6
12/09:00am WNW 12 16 - - - - - - - 14.9 1021.5 0.2
12/08:30am W 9 14 - - - - - - - 15.3 1021.4 0.2
12/08:00am W 9 13 - - - - - - - 14.7 1021.3 0.2
12/07:30am WNW 13 18 - - - - - - - 13.7 1020.9 0.2
12/07:00am WNW 13 17 - - - - - - - 13.1 1020.7 0.2
12/06:30am W 10 13 - - - - - - - 13.1 1020.6 0.2
12/06:00am W 10 14 - - - - - - Recent precip. 13.2 1020.5 0.2
12/05:30am WNW 14 18 - - - - - - - 13.2 1020.4 0.2
12/05:00am NW 8 12 - - - - - - - 13.4 1020.3 0.0
12/04:30am WNW 10 13 - - - - - - - 13.5 1020.2 0.0
12/04:00am WNW 10 12 - - - - - - - 13.4 1020.2 0.0
12/03:30am W 10 13 - - - - - - - 13.6 1020.2 0.0
12/03:00am WSW 11 17 - - - - - - - 13.9 1020.3 0.0
12/02:30am W 10 14 - - - - - - - 13.1 1020.5 0.0
12/02:00am WNW 11 15 - - - - - - - 13.3 1020.8 0.0
12/01:30am W 10 14 - - - - - - - 13.5 1021.1 0.0
12/01:00am WNW 10 13 - - - - - - - 13.5 1021.3 0.0
12/12:30am WNW 11 15 - - - - - - - 13.8 1021.4 0.0
12/12:00am WNW 11 13 - - - - - - - 13.6 1021.4 0.0
 
Date/Time
EST
Wind Sea
Height
m
Swell Vis
km
Cloud Weather Temp
°C
Press
MSL
hPa
Rain since
9am
mm
Dir  Spd
kts
Gust
kts
Height
m
Period
s
Dir
11/11:30pm WNW 11 13 - - - - - - - 13.7 1021.5 0.0
11/11:00pm W 9 11 - - - - - - - 13.9 1021.8 0.0
11/10:30pm W 6 9 - - - - - - - 13.9 1022.0 0.0
11/10:00pm W 8 13 - - - - - - - 14.1 1022.1 0.0
11/09:30pm W 9 12 - - - - - - - 13.9 1022.0 0.0
11/09:00pm W 9 11 - - - - - - - 14.1 1022.0 0.0
11/08:30pm W 8 11 - - - - - - - 14.1 1022.0 0.0
11/08:00pm WSW 12 17 - - - - - - - 14.6 1022.0 0.0
11/07:30pm WSW 11 16 - - - - - - - 14.8 1022.1 0.0
11/07:00pm WSW 10 15 - - - - - - - 14.7 1022.1 0.0
11/06:30pm WSW 14 19 - - - - - - - 14.8 1021.8 0.0
11/06:00pm WSW 14 19 - - - - - - - 14.6 1021.5 0.0
11/05:30pm WSW 15 20 - - - - - - - 14.8 1021.3 0.0
11/05:00pm WSW 15 20 - - - - - - - 15.0 1021.2 0.0
11/04:30pm WSW 16 21 - - - - - - - 15.3 1021.1 0.0
11/04:00pm WSW 18 21 - - - - - - - 15.2 1021.1 0.0
11/03:30pm WSW 17 21 - - - - - - - 15.4 1021.2 0.0
11/03:00pm WSW 16 19 - - - - - - - 15.4 1021.2 0.0
11/02:30pm WSW 14 20 - - - - - - - 15.1 1021.0 0.0
11/02:00pm WSW 16 19 - - - - - - - 15.2 1020.9 0.0
11/01:30pm WSW 17 20 - - - - - - - 15.7 1020.9 0.0
11/01:00pm WSW 15 19 - - - - - - - 15.7 1021.2 0.0
11/12:30pm WSW 15 20 - - - - - - - 15.3 1021.6 0.0
11/12:00pm WSW 19 22 - - - - - - - 15.5 1021.5 0.0
11/11:30am WSW 17 22 - - - - - - - 15.5 1021.7 0.0
11/11:00am SW 18 22 - - - - - - - 15.5 1021.5 0.0

Other formats

Comma delimited format used in spreadsheet applications
http://www.bom.gov.au/fwo/IDV60701/IDV60701.94893.axf

JavaScript Object Notation format (JSON) in row-major order
http://www.bom.gov.au/fwo/IDV60701/IDV60701.94893.json

Data quality

Most of these data are generated automatically and are frequently updated. Quality checks on data are not normally performed. It is possible for incorrect values to appear. Refer to information at About Latest Weather Observations and please check the disclaimer before using these data.